• Join FlightAware (Why Join?)
  • Login
  • US Flag 
01:13AM EST


 

Airport Tracker/Info


-or-


 

Live Flight TrackerFlight Track Log ✈ RPA4886 ✈ 04-May-2013 ✈ KORF - KEWR

Flight Track Log - Related Links

Times and Time Zones

All times are in EDT time to prevent confusion due to time zone crossing. See the RPA4886 flight status page for this flight to view local times or setup timezone preferences in your user account.

Time Position Orientation Groundspeed Altitude Reporting Facility
EDT Latitude Longitude Course Direction KTS MPH feet Rate Location/Type
10:36AM 36.9392 -76.1636 32° Northeast 208 239 2,700  Level Washington Center
10:37AM 36.9911 -76.1925 336° Northwest 187 215 4,600 1,920 Climbing Washington Center
10:38AM 37.0358 -76.4921 300° West  Level FlightAware Approximate
10:38AM 37.0261 -76.2761 298° West 214 246 6,500  Level Washington Center
10:39AM 37.0824 -76.5946 300° West  Level FlightAware Approximate
10:39AM 37.0547 -76.3647 292° West 240 276 8,800  Level Washington Center
10:40AM 37.1290 -76.6971 300° West  Level FlightAware Approximate
10:40AM 37.0897 -76.4564 296° West 267 307 10,500  Level Washington Center
10:41AM 37.1222 -76.5503 293° West 292 336 12,200 1,620 Climbing Washington Center
10:42AM 37.1592 -76.6472 296° West 305 351 13,800 1,560 Climbing Washington Center
10:43AM 37.1936 -76.7417 295° West 305 351 15,300 1,440 Climbing Washington Center
10:44AM 37.2281 -76.8386 294° West 305 351 16,700 1,320 Climbing Washington Center
10:45AM 37.2647 -76.9411 294° West 305 351 18,000 960 Climbing Washington Center
10:46AM 37.2928 -77.0250 293° West 305 351 18,700 840 Climbing Washington Center
10:47AM 37.3586 -77.0969 319° Northwest 278 320 19,800 1,020 Climbing Washington Center
10:48AM 37.4300 -77.0719 16° North 258 297 20,800 600 Climbing Washington Center
10:49AM 37.5097 -77.0317 22° Northeast 296 341 21,000 60 Climbing Washington Center
10:50AM 37.5875 -76.9756 30° Northeast 307 353 21,000  Level Washington Center
10:51AM 37.6717 -76.9219 27° Northeast 323 372 21,000  Level Washington Center
10:52AM 37.7597 -76.8658 27° Northeast 333 383 21,000  Level Washington Center
10:53AM 37.8439 -76.8092 28° Northeast 338 389 21,000  Level Washington Center
10:54AM 37.9300 -76.7528 27° Northeast 338 389 21,000  Level Washington Center
10:55AM 38.0139 -76.6986 27° Northeast 338 389 21,000  Level Washington Center
10:56AM 38.0997 -76.6419 27° Northeast 338 389 21,000  Level Washington Center
10:57AM 38.1836 -76.5850 28° Northeast 338 389 21,000 -780 Level Washington Center
10:58AM 38.2697 -76.5306 26° Northeast 338 389 19,500 -1,620 Descending Washington Center
10:59AM 38.3533 -76.4761 27° Northeast 338 389 17,800 -1,620 Descending Washington Center
11:00AM 38.4414 -76.4186 27° Northeast 338 389 16,300 -1,740 Descending Washington Center
11:01AM 38.5336 -76.3561 28° Northeast 338 389 14,300 -1,560 Descending Washington Center
11:02AM 38.5986 -76.3117 28° Northeast 338 389 13,300 -660 Descending Washington Center
11:03AM 38.6925 -76.2806 15° North 305 351 13,000 -360 Descending Washington Center
11:04AM 38.7803 -76.2519 14° North 305 351 12,600 -720 Descending Washington Center
11:05AM 38.8678 -76.2236 14° North 316 364 11,600 -840 Descending Washington Center
11:06AM 38.9578 -76.2003 11° North 323 372 11,000 -360 Descending Washington Center
11:07AM 39.0453 -76.1717 14° North 323 372 11,000 -60 Level Washington Center
11:08AM 39.1267 -76.1428 15° North 323 372 10,900 -60 Descending Washington Center
11:09AM 39.2122 -76.1139 15° North 323 372 10,900  Level Washington Center
11:10AM 39.2939 -76.0717 22° Northeast 318 366 10,900 60 Level Washington Center
11:12AM 39.4000 -75.9333 45° Northeast 312 359 11,100 60 Climbing Philadelphia TRACON
11:13AM 39.4833 -75.8500 38° Northeast 312 359 11,100  Level Philadelphia TRACON
11:14AM 39.5333 -75.7667 52° Northeast 311 358 11,100 -60 Level Philadelphia TRACON
11:15AM 39.6000 -75.7000 38° Northeast 312 359 11,000  Descending Philadelphia TRACON
11:16AM 39.6667 -75.6333 38° Northeast 311 358 11,100  Climbing Philadelphia TRACON
11:17AM 39.7000 -75.5333 67° East 309 356 11,100  Level Philadelphia TRACON
11:18AM 39.7333 -75.4333 67° East 310 357 11,100 -300 Level Philadelphia TRACON
11:19AM 39.7667 -75.3333 67° East 300 345 10,600 -540 Descending Philadelphia TRACON
11:20AM 39.7833 -75.2333 78° East 264 304 10,100 -540 Descending Philadelphia TRACON
11:21AM 39.8167 -75.1500 62° Northeast 252 290 9,600 -540 Descending Philadelphia TRACON
11:22AM 39.8333 -75.0667 75° East 254 292 9,100 -540 Descending Philadelphia TRACON
11:23AM 39.8667 -74.9833 62° Northeast 258 297 8,600 -540 Descending Philadelphia TRACON
11:24AM 39.9167 -74.9167 46° Northeast 257 296 8,100 -540 Descending Philadelphia TRACON
11:25AM 39.9667 -74.8500 46° Northeast 250 288 7,600 -420 Descending Philadelphia TRACON
11:26AM 40.0333 -74.7500 49° Northeast 241 277 7,100 -240 Descending New York TRACON
11:27AM 40.0833 -74.6833 46° Northeast 246 283 7,100  Level New York TRACON
11:28AM 40.1333 -74.6333 37° Northeast 254 292 7,100  Level New York TRACON
11:29AM 40.2000 -74.5833 30° Northeast 252 290 7,100 -60 Level New York TRACON
11:30AM 40.2500 -74.5333 37° Northeast 252 290 7,000 -600 Descending New York TRACON
11:31AM 40.3000 -74.4833 37° Northeast 242 278 6,000 -1,020 Descending New York TRACON
11:32AM 40.3500 -74.4333 37° Northeast 234 269 5,000 -1,140 Descending New York TRACON
11:33AM 40.4167 -74.3833 30° Northeast 237 273 3,800 -1,080 Descending New York TRACON
11:34AM 40.4667 -74.3333 37° Northeast 235 270 2,900 -480 Descending New York TRACON
11:35AM 40.5167 -74.2833 37° Northeast 232 267 2,900 -180 Level New York TRACON
11:36AM 40.5667 -74.2500 27° Northeast 177 204 2,600 -660 Descending New York TRACON
11:37AM 40.6167 -74.2167 27° Northeast 179 206 1,600 -900 Descending New York TRACON
11:38AM 40.6500 -74.2000 21° North 134 154 800 -840 Descending New York TRACON